sensor_id;sensor_type;location;lat;lon;timestamp;pressure;altitude;pressure_sealevel;temperature;humidity
5988;BME280;3021;51.000;6.980;2023-04-25T00:00:55;67050.28;;;6.75;100.00
5988;BME280;3021;51.000;6.980;2023-04-25T00:03:20;67050.72;;;6.73;100.00
5988;BME280;3021;51.000;6.980;2023-04-25T00:05:46;67043.38;;;6.69;100.00
5988;BME280;3021;51.000;6.980;2023-04-25T00:08:11;67039.94;;;6.66;100.00
5988;BME280;3021;51.000;6.980;2023-04-25T00:10:37;67039.63;;;6.61;100.00
5988;BME280;3021;51.000;6.980;2023-04-25T00:13:02;67027.28;;;6.55;100.00
5988;BME280;3021;51.000;6.980;2023-04-25T00:15:28;67024.94;;;6.53;100.00
5988;BME280;3021;51.000;6.980;2023-04-25T00:17:56;67023.66;;;6.49;100.00
5988;BME280;3021;51.000;6.980;2023-04-25T00:20:21;67019.78;;;6.48;100.00
5988;BME280;3021;51.000;6.980;2023-04-25T00:22:48;67035.31;;;6.62;100.00
5988;BME280;3021;51.000;6.980;2023-04-25T00:25:14;67031.16;;;6.56;100.00
5988;BME280;3021;51.000;6.980;2023-04-25T00:27:39;67026.94;;;6.50;100.00
5988;BME280;3021;51.000;6.980;2023-04-25T00:30:05;67015.75;;;6.45;100.00
5988;BME280;3021;51.000;6.980;2023-04-25T00:32:30;67011.72;;;6.41;100.00
5988;BME280;3021;51.000;6.980;2023-04-25T00:34:56;67017.88;;;6.44;100.00
5988;BME280;3021;51.000;6.980;2023-04-25T00:37:23;67008.09;;;6.35;100.00
5988;BME280;3021;51.000;6.980;2023-04-25T00:39:48;67005.81;;;6.33;100.00
5988;BME280;3021;51.000;6.980;2023-04-25T00:42:14;67003.09;;;6.33;100.00
5988;BME280;3021;51.000;6.980;2023-04-25T00:44:40;67001.78;;;6.30;100.00
5988;BME280;3021;51.000;6.980;2023-04-25T00:47:06;66999.88;;;6.26;100.00
5988;BME280;3021;51.000;6.980;2023-04-25T00:49:32;66992.16;;;6.23;100.00
5988;BME280;3021;51.000;6.980;2023-04-25T00:51:57;66991.09;;;6.15;100.00
5988;BME280;3021;51.000;6.980;2023-04-25T00:54:23;66981.94;;;6.17;100.00
5988;BME280;3021;51.000;6.980;2023-04-25T00:56:48;66984.09;;;6.16;100.00
5988;BME280;3021;51.000;6.980;2023-04-25T00:59:15;66982.94;;;6.15;100.00
5988;BME280;3021;51.000;6.980;2023-04-25T01:01:40;66983.78;;;6.11;100.00
5988;BME280;3021;51.000;6.980;2023-04-25T01:04:07;66981.03;;;6.11;100.00
5988;BME280;3021;51.000;6.980;2023-04-25T01:06:32;66994.31;;;6.23;100.00
5988;BME280;3021;51.000;6.980;2023-04-25T01:08:58;67006.38;;;6.34;100.00
5988;BME280;3021;51.000;6.980;2023-04-25T01:11:24;67019.22;;;6.48;100.00
5988;BME280;3021;51.000;6.980;2023-04-25T01:13:50;67026.28;;;6.56;100.00
5988;BME280;3021;51.000;6.980;2023-04-25T01:16:15;67035.91;;;6.63;100.00
5988;BME280;3021;51.000;6.980;2023-04-25T01:18:41;67042.22;;;6.68;100.00
5988;BME280;3021;51.000;6.980;2023-04-25T01:21:11;67053.75;;;6.79;100.00
5988;BME280;3021;51.000;6.980;2023-04-25T01:23:41;67062.97;;;6.87;100.00
5988;BME280;3021;51.000;6.980;2023-04-25T01:26:10;67075.66;;;6.98;100.00
5988;BME280;3021;51.000;6.980;2023-04-25T01:28:37;67078.53;;;7.01;100.00
5988;BME280;3021;51.000;6.980;2023-04-25T01:31:03;67085.44;;;7.07;100.00
5988;BME280;3021;51.000;6.980;2023-04-25T01:33:30;67073.66;;;7.01;100.00
5988;BME280;3021;51.000;6.980;2023-04-25T01:35:56;67080.09;;;7.00;100.00
5988;BME280;3021;51.000;6.980;2023-04-25T01:38:21;67076.06;;;6.96;100.00
5988;BME280;3021;51.000;6.980;2023-04-25T01:40:48;67056.63;;;6.81;100.00
5988;BME280;3021;51.000;6.980;2023-04-25T01:43:14;67042.81;;;6.69;100.00
5988;BME280;3021;51.000;6.980;2023-04-25T01:45:42;67033.59;;;6.61;100.00
5988;BME280;3021;51.000;6.980;2023-04-25T01:48:12;67038.06;;;6.62;100.00
5988;BME280;3021;51.000;6.980;2023-04-25T01:50:41;67036.16;;;6.58;100.00
5988;BME280;3021;51.000;6.980;2023-04-25T01:53:09;67016.16;;;6.43;100.00
5988;BME280;3021;51.000;6.980;2023-04-25T01:55:34;67021.50;;;6.50;100.00
5988;BME280;3021;51.000;6.980;2023-04-25T01:58:02;67023.66;;;6.49;100.00
5988;BME280;3021;51.000;6.980;2023-04-25T02:00:28;67006.38;;;6.34;100.00
5988;BME280;3021;51.000;6.980;2023-04-25T02:02:53;66995.59;;;6.27;100.00
5988;BME280;3021;51.000;6.980;2023-04-25T02:05:19;67003.34;;;6.29;100.00
5988;BME280;3021;51.000;6.980;2023-04-25T02:07:46;66992.16;;;6.23;100.00
5988;BME280;3021;51.000;6.980;2023-04-25T02:10:11;66981.22;;;6.14;100.00
5988;BME280;3021;51.000;6.980;2023-04-25T02:12:37;66975.31;;;6.06;100.00
5988;BME280;3021;51.000;6.980;2023-04-25T02:15:05;66981.22;;;6.14;100.00
5988;BME280;3021;51.000;6.980;2023-04-25T02:17:31;66973.56;;;6.04;100.00
5988;BME280;3021;51.000;6.980;2023-04-25T02:19:56;66974.72;;;6.05;100.00
5988;BME280;3021;51.000;6.980;2023-04-25T02:22:22;66969.28;;;6.05;100.00
5988;BME280;3021;51.000;6.980;2023-04-25T02:24:47;66982.63;;;6.10;100.00
5988;BME280;3021;51.000;6.980;2023-04-25T02:27:12;67004.81;;;6.35;100.00
5988;BME280;3021;51.000;6.980;2023-04-25T02:29:38;67016.16;;;6.43;100.00
5988;BME280;3021;51.000;6.980;2023-04-25T02:32:03;67022.09;;;6.50;100.00
5988;BME280;3021;51.000;6.980;2023-04-25T02:34:29;67027.84;;;6.55;100.00
5988;BME280;3021;51.000;6.980;2023-04-25T02:36:54;67035.31;;;6.62;100.00
5988;BME280;3021;51.000;6.980;2023-04-25T02:39:20;67047.41;;;6.73;100.00
5988;BME280;3021;51.000;6.980;2023-04-25T02:41:47;67046.84;;;6.72;100.00
5988;BME280;3021;51.000;6.980;2023-04-25T02:44:12;67065.84;;;6.89;100.00
5988;BME280;3021;51.000;6.980;2023-04-25T02:46:37;67059.94;;;6.82;100.00
5988;BME280;3021;51.000;6.980;2023-04-25T02:49:03;67054.91;;;6.80;100.00
5988;BME280;3021;51.000;6.980;2023-04-25T02:51:28;67055.50;;;6.80;100.00
5988;BME280;3021;51.000;6.980;2023-04-25T02:53:53;67073.75;;;6.94;100.00
5988;BME280;3021;51.000;6.980;2023-04-25T02:56:19;67077.22;;;6.97;100.00
5988;BME280;3021;51.000;6.980;2023-04-25T02:58:44;67071.03;;;6.94;100.00
5988;BME280;3021;51.000;6.980;2023-04-25T03:01:10;67066.41;;;6.90;100.00
5988;BME280;3021;51.000;6.980;2023-04-25T03:03:35;67073.19;;;6.94;100.00
5988;BME280;3021;51.000;6.980;2023-04-25T03:06:03;67078.09;;;7.03;100.00
5988;BME280;3021;51.000;6.980;2023-04-25T03:08:29;67086.44;;;7.05;100.00
5988;BME280;3021;51.000;6.980;2023-04-25T03:10:58;67089.47;;;7.11;100.00
5988;BME280;3021;51.000;6.980;2023-04-25T03:13:23;67086.03;;;7.07;100.00
5988;BME280;3021;51.000;6.980;2023-04-25T03:15:49;67083.72;;;7.05;100.00
5988;BME280;3021;51.000;6.980;2023-04-25T03:18:14;67102.16;;;7.22;100.00
5988;BME280;3021;51.000;6.980;2023-04-25T03:20:39;67098.69;;;7.19;100.00
5988;BME280;3021;51.000;6.980;2023-04-25T03:23:06;67082.53;;;7.04;100.00
5988;BME280;3021;51.000;6.980;2023-04-25T03:25:32;67084.88;;;7.06;100.00
5988;BME280;3021;51.000;6.980;2023-04-25T03:27:57;67073.34;;;6.96;100.00
5988;BME280;3021;51.000;6.980;2023-04-25T03:30:22;67066.41;;;6.90;100.00
5988;BME280;3021;51.000;6.980;2023-04-25T03:32:48;67063.56;;;6.87;100.00
5988;BME280;3021;51.000;6.980;2023-04-25T03:35:13;67072.75;;;6.96;100.00
5988;BME280;3021;51.000;6.980;2023-04-25T03:37:38;67077.38;;;7.00;100.00
5988;BME280;3021;51.000;6.980;2023-04-25T03:40:06;67082.53;;;7.04;100.00
5988;BME280;3021;51.000;6.980;2023-04-25T03:42:31;67084.72;;;7.04;100.00
5988;BME280;3021;51.000;6.980;2023-04-25T03:44:56;67083.72;;;7.05;100.00
5988;BME280;3021;51.000;6.980;2023-04-25T03:47:22;67083.53;;;7.03;100.00
5988;BME280;3021;51.000;6.980;2023-04-25T03:49:47;67087.59;;;7.06;100.00
5988;BME280;3021;51.000;6.980;2023-04-25T03:52:14;67101.44;;;7.19;100.00
5988;BME280;3021;51.000;6.980;2023-04-25T03:54:39;67108.34;;;7.25;100.00
5988;BME280;3021;51.000;6.980;2023-04-25T03:57:05;67109.22;;;7.31;100.00
5988;BME280;3021;51.000;6.980;2023-04-25T03:59:30;67114.25;;;7.33;100.00
5988;BME280;3021;51.000;6.980;2023-04-25T04:01:56;67100.00;;;7.22;100.00
5988;BME280;3021;51.000;6.980;2023-04-25T04:04:21;67104.44;;;7.24;100.00
5988;BME280;3021;51.000;6.980;2023-04-25T04:06:46;67107.50;;;7.29;100.00
5988;BME280;3021;51.000;6.980;2023-04-25T04:09:12;67116.41;;;7.32;100.00
5988;BME280;3021;51.000;6.980;2023-04-25T04:11:38;67118.84;;;7.37;100.00
5988;BME280;3021;51.000;6.980;2023-04-25T04:14:06;67124.47;;;7.39;100.00
5988;BME280;3021;51.000;6.980;2023-04-25T04:16:32;67124.63;;;7.42;100.00
5988;BME280;3021;51.000;6.980;2023-04-25T04:18:57;67120.00;;;7.38;100.00
5988;BME280;3021;51.000;6.980;2023-04-25T04:21:25;67125.75;;;7.43;100.00
5988;BME280;3021;51.000;6.980;2023-04-25T04:23:52;67132.69;;;7.49;100.00
5988;BME280;3021;51.000;6.980;2023-04-25T04:26:19;67132.09;;;7.49;100.00
5988;BME280;3021;51.000;6.980;2023-04-25T04:28:48;67142.50;;;7.58;100.00
5988;BME280;3021;51.000;6.980;2023-04-25T04:31:14;67141.31;;;7.57;100.00
5988;BME280;3021;51.000;6.980;2023-04-25T04:33:41;67141.91;;;7.57;100.00
5988;BME280;3021;51.000;6.980;2023-04-25T04:36:07;67139.59;;;7.55;100.00
5988;BME280;3021;51.000;6.980;2023-04-25T04:38:32;67147.09;;;7.62;100.00
5988;BME280;3021;51.000;6.980;2023-04-25T04:40:58;67151.88;;;7.69;100.00
5988;BME280;3021;51.000;6.980;2023-04-25T04:43:23;67150.00;;;7.65;100.00
5988;BME280;3021;51.000;6.980;2023-04-25T04:45:49;67156.34;;;7.70;100.00
5988;BME280;3021;51.000;6.980;2023-04-25T04:48:15;67158.63;;;7.72;100.00
5988;BME280;3021;51.000;6.980;2023-04-25T04:50:43;67171.16;;;7.81;100.00
5988;BME280;3021;51.000;6.980;2023-04-25T04:53:10;67163.41;;;7.79;100.00
5988;BME280;3021;51.000;6.980;2023-04-25T04:55:36;67167.25;;;7.80;100.00
5988;BME280;3021;51.000;6.980;2023-04-25T04:58:02;67175.34;;;7.87;100.00
5988;BME280;3021;51.000;6.980;2023-04-25T05:00:27;67184.00;;;7.95;100.00
5988;BME280;3021;51.000;6.980;2023-04-25T05:02:54;67176.50;;;7.88;100.00
5988;BME280;3021;51.000;6.980;2023-04-25T05:05:20;67167.84;;;7.81;100.00
5988;BME280;3021;51.000;6.980;2023-04-25T05:07:45;67171.16;;;7.81;100.00
5988;BME280;3021;51.000;6.980;2023-04-25T05:10:11;67172.47;;;7.85;100.00
5988;BME280;3021;51.000;6.980;2023-04-25T05:12:36;67174.75;;;7.87;100.00
5988;BME280;3021;51.000;6.980;2023-04-25T05:15:04;67196.09;;;8.06;100.00
5988;BME280;3021;51.000;6.980;2023-04-25T05:17:30;67202.59;;;8.14;100.00
5988;BME280;3021;51.000;6.980;2023-04-25T05:19:56;67210.38;;;8.16;100.00
5988;BME280;3021;51.000;6.980;2023-04-25T05:22:22;67201.88;;;8.11;100.00
5988;BME280;3021;51.000;6.980;2023-04-25T05:24:48;67198.41;;;8.08;100.00
5988;BME280;3021;51.000;6.980;2023-04-25T05:27:15;67215.72;;;8.23;100.00
5988;BME280;3021;51.000;6.980;2023-04-25T05:29:41;67246.88;;;8.51;100.00
5988;BME280;3021;51.000;6.980;2023-04-25T05:32:06;67355.78;;;9.46;100.00
5988;BME280;3021;51.000;6.980;2023-04-25T05:34:32;67390.75;;;9.82;100.00
5988;BME280;3021;51.000;6.980;2023-04-25T05:36:57;67373.25;;;9.64;100.00
5988;BME280;3021;51.000;6.980;2023-04-25T05:39:23;67414.41;;;10.03;100.00
5988;BME280;3021;51.000;6.980;2023-04-25T05:41:48;67398.69;;;9.86;100.00
5988;BME280;3021;51.000;6.980;2023-04-25T05:44:13;67378.44;;;9.68;100.00
5988;BME280;3021;51.000;6.980;2023-04-25T05:46:40;67363.00;;;9.57;100.00
5988;BME280;3021;51.000;6.980;2023-04-25T05:49:06;67422.78;;;10.06;100.00
5988;BME280;3021;51.000;6.980;2023-04-25T05:51:32;67467.16;;;10.52;100.00
5988;BME280;3021;51.000;6.980;2023-04-25T05:53:57;67513.81;;;10.92;100.00
5988;BME280;3021;51.000;6.980;2023-04-25T05:56:22;67660.88;;;12.25;100.00
5988;BME280;3021;51.000;6.980;2023-04-25T05:58:48;67650.31;;;12.13;100.00
5988;BME280;3021;51.000;6.980;2023-04-25T06:01:13;67588.97;;;11.58;100.00
5988;BME280;3021;51.000;6.980;2023-04-25T06:03:39;67530.56;;;11.06;100.00
5988;BME280;3021;51.000;6.980;2023-04-25T06:06:08;67490.69;;;10.71;100.00
5988;BME280;3021;51.000;6.980;2023-04-25T06:08:33;67459.34;;;10.41;100.00
5988;BME280;3021;51.000;6.980;2023-04-25T06:10:58;67438.09;;;10.24;100.00
5988;BME280;3021;51.000;6.980;2023-04-25T06:13:24;67509.19;;;10.87;100.00
5988;BME280;3021;51.000;6.980;2023-04-25T06:15:49;67648.28;;;12.06;100.00
5988;BME280;3021;51.000;6.980;2023-04-25T06:18:14;67781.56;;;13.27;100.00
5988;BME280;3021;51.000;6.980;2023-04-25T06:20:40;67808.38;;;13.54;100.00
5988;BME280;3021;51.000;6.980;2023-04-25T06:23:05;67772.00;;;13.24;100.00
5988;BME280;3021;51.000;6.980;2023-04-25T06:25:30;67702.81;;;12.57;100.00
5988;BME280;3021;51.000;6.980;2023-04-25T06:27:56;67624.25;;;11.90;100.00
5988;BME280;3021;51.000;6.980;2023-04-25T06:30:21;67633.09;;;12.00;100.00
5988;BME280;3021;51.000;6.980;2023-04-25T06:32:53;67718.03;;;12.73;100.00
5988;BME280;3021;51.000;6.980;2023-04-25T06:35:19;67757.53;;;13.11;100.00
5988;BME280;3021;51.000;6.980;2023-04-25T06:37:45;67710.66;;;12.69;100.00
5988;BME280;3021;51.000;6.980;2023-04-25T06:40:10;67715.72;;;12.71;100.00
5988;BME280;3021;51.000;6.980;2023-04-25T06:42:36;67723.81;;;12.78;100.00
5988;BME280;3021;51.000;6.980;2023-04-25T06:45:01;67706.00;;;12.65;100.00
5988;BME280;3021;51.000;6.980;2023-04-25T06:47:27;67716.88;;;12.72;100.00
5988;BME280;3021;51.000;6.980;2023-04-25T06:49:52;67736.53;;;12.90;100.00
5988;BME280;3021;51.000;6.980;2023-04-25T06:52:17;67738.88;;;12.92;100.00
5988;BME280;3021;51.000;6.980;2023-04-25T06:54:43;67761.47;;;13.12;100.00
5988;BME280;3021;51.000;6.980;2023-04-25T06:57:09;67781.13;;;13.29;100.00
5988;BME280;3021;51.000;6.980;2023-04-25T06:59:34;67815.47;;;13.62;100.00
5988;BME280;3021;51.000;6.980;2023-04-25T07:01:59;67844.44;;;13.88;100.00
5988;BME280;3021;51.000;6.980;2023-04-25T07:04:25;67811.72;;;13.54;100.00
5988;BME280;3021;51.000;6.980;2023-04-25T07:06:50;67762.03;;;13.12;100.00
5988;BME280;3021;51.000;6.980;2023-04-25T07:09:18;67732.38;;;12.84;100.00
5988;BME280;3021;51.000;6.980;2023-04-25T07:11:43;67691.41;;;12.50;100.00
5988;BME280;3021;51.000;6.980;2023-04-25T07:14:09;67691.97;;;12.50;100.00
5988;BME280;3021;51.000;6.980;2023-04-25T07:16:34;67732.50;;;12.86;100.00
5988;BME280;3021;51.000;6.980;2023-04-25T07:18:59;67725.69;;;12.83;100.00
5988;BME280;3021;51.000;6.980;2023-04-25T07:21:25;67734.38;;;12.90;100.00
5988;BME280;3021;51.000;6.980;2023-04-25T07:23:50;67746.38;;;12.99;100.00
5988;BME280;3021;51.000;6.980;2023-04-25T07:26:16;67744.81;;;13.00;100.00
5988;BME280;3021;51.000;6.980;2023-04-25T07:28:42;67791.16;;;13.41;100.00
5988;BME280;3021;51.000;6.980;2023-04-25T07:31:08;67822.31;;;13.66;100.00
5988;BME280;3021;51.000;6.980;2023-04-25T07:33:34;67851.13;;;13.89;100.00
5988;BME280;3021;51.000;6.980;2023-04-25T07:35:59;67869.94;;;14.11;100.00
5988;BME280;3021;51.000;6.980;2023-04-25T07:38:25;67933.44;;;14.62;100.00
5988;BME280;3021;51.000;6.980;2023-04-25T07:40:50;67998.69;;;15.25;100.00
5988;BME280;3021;51.000;6.980;2023-04-25T07:43:16;67896.59;;;14.34;100.00
5988;BME280;3021;51.000;6.980;2023-04-25T07:45:45;67799.25;;;13.48;100.00
5988;BME280;3021;51.000;6.980;2023-04-25T07:48:11;67749.84;;;13.02;100.00
5988;BME280;3021;51.000;6.980;2023-04-25T07:50:37;67762.59;;;13.13;100.00
5988;BME280;3021;51.000;6.980;2023-04-25T07:53:02;67781.72;;;13.30;100.00
5988;BME280;3021;51.000;6.980;2023-04-25T07:55:28;67820.53;;;13.64;100.00
5988;BME280;3021;51.000;6.980;2023-04-25T07:57:53;67941.13;;;14.72;100.00
5988;BME280;3021;51.000;6.980;2023-04-25T08:00:19;68079.34;;;15.97;100.00
5988;BME280;3021;51.000;6.980;2023-04-25T08:02:44;68110.09;;;16.24;100.00
5988;BME280;3021;51.000;6.980;2023-04-25T08:05:10;68199.69;;;17.06;100.00
5988;BME280;3021;51.000;6.980;2023-04-25T08:07:39;68118.94;;;16.34;100.00
5988;BME280;3021;51.000;6.980;2023-04-25T08:10:06;68062.38;;;15.79;100.00
5988;BME280;3021;51.000;6.980;2023-04-25T08:12:32;68060.19;;;15.80;100.00
5988;BME280;3021;51.000;6.980;2023-04-25T08:14:57;68061.19;;;15.78;100.00
5988;BME280;3021;51.000;6.980;2023-04-25T08:17:22;67969.53;;;14.97;100.00
5988;BME280;3021;51.000;6.980;2023-04-25T08:19:48;67862.41;;;14.04;100.00
5988;BME280;3021;51.000;6.980;2023-04-25T08:22:14;67782.88;;;13.31;100.00
5988;BME280;3021;51.000;6.980;2023-04-25T08:24:39;67670.56;;;12.31;100.00
5988;BME280;3021;51.000;6.980;2023-04-25T08:27:05;67638.75;;;12.03;100.00
5988;BME280;3021;51.000;6.980;2023-04-25T08:29:31;67665.78;;;12.24;100.00
5988;BME280;3021;51.000;6.980;2023-04-25T08:31:57;67674.63;;;12.35;100.00
5988;BME280;3021;51.000;6.980;2023-04-25T08:34:22;67669.56;;;12.33;100.00
5988;BME280;3021;51.000;6.980;2023-04-25T08:36:47;67615.59;;;11.82;100.00
5988;BME280;3021;51.000;6.980;2023-04-25T08:39:13;67565.41;;;11.40;100.00
5988;BME280;3021;51.000;6.980;2023-04-25T08:41:38;67535.63;;;11.09;100.00
5988;BME280;3021;51.000;6.980;2023-04-25T08:44:09;67507.31;;;10.83;100.00
5988;BME280;3021;51.000;6.980;2023-04-25T08:46:37;67479.72;;;10.61;100.00
5988;BME280;3021;51.000;6.980;2023-04-25T08:49:03;67466.28;;;10.47;100.00
5988;BME280;3021;51.000;6.980;2023-04-25T08:51:31;67478.56;;;10.60;100.00
5988;BME280;3021;51.000;6.980;2023-04-25T08:54:10;67487.66;;;10.66;100.00
5988;BME280;3021;51.000;6.980;2023-04-25T08:56:37;67467.59;;;10.50;100.00
5988;BME280;3021;51.000;6.980;2023-04-25T08:59:03;67475.69;;;10.58;100.00
5988;BME280;3021;51.000;6.980;2023-04-25T09:01:28;67502.84;;;10.82;100.00
5988;BME280;3021;51.000;6.980;2023-04-25T09:03:54;67537.81;;;11.08;100.00
5988;BME280;3021;51.000;6.980;2023-04-25T09:06:19;67578.41;;;11.47;100.00
5988;BME280;3021;51.000;6.980;2023-04-25T09:08:45;67666.94;;;12.25;100.00
5988;BME280;3021;51.000;6.980;2023-04-25T09:11:12;67804.19;;;13.47;100.00
5988;BME280;3021;51.000;6.980;2023-04-25T09:13:38;67984.19;;;15.12;100.00
5988;BME280;3021;51.000;6.980;2023-04-25T09:16:03;68057.72;;;15.75;100.00
5988;BME280;3021;51.000;6.980;2023-04-25T09:18:33;68194.19;;;16.96;100.00
5988;BME280;3021;51.000;6.980;2023-04-25T09:21:10;68417.59;;;18.96;100.00
5988;BME280;3021;51.000;6.980;2023-04-25T09:23:41;68513.63;;;19.81;100.00
5988;BME280;3021;51.000;6.980;2023-04-25T09:26:07;68532.28;;;19.98;100.00
5988;BME280;3021;51.000;6.980;2023-04-25T09:28:33;68866.28;;;22.93;100.00
5988;BME280;3021;51.000;6.980;2023-04-25T09:31:00;68843.09;;;22.75;100.00
5988;BME280;3021;51.000;6.980;2023-04-25T09:33:32;68529.94;;;19.96;100.00
5988;BME280;3021;51.000;6.980;2023-04-25T09:36:04;68247.06;;;17.43;100.00
5988;BME280;3021;51.000;6.980;2023-04-25T09:38:40;68057.88;;;15.78;100.00
5988;BME280;3021;51.000;6.980;2023-04-25T09:41:07;67930.69;;;14.62;100.00
5988;BME280;3021;51.000;6.980;2023-04-25T09:43:33;67866.31;;;14.05;100.00
5988;BME280;3021;51.000;6.980;2023-04-25T09:45:58;67826.78;;;13.68;100.00
5988;BME280;3021;51.000;6.980;2023-04-25T09:48:26;67855.47;;;13.98;100.00
5988;BME280;3021;51.000;6.980;2023-04-25T09:51:13;67883.88;;;14.23;100.00
5988;BME280;3021;51.000;6.980;2023-04-25T09:53:45;67884.16;;;14.18;100.00
5988;BME280;3021;51.000;6.980;2023-04-25T09:56:18;67856.34;;;13.94;100.00
5988;BME280;3021;51.000;6.980;2023-04-25T09:58:46;67835.47;;;13.75;100.00
5988;BME280;3021;51.000;6.980;2023-04-25T10:01:12;67758.97;;;13.07;100.00
5988;BME280;3021;51.000;6.980;2023-04-25T10:03:39;67746.38;;;12.99;100.00
5988;BME280;3021;51.000;6.980;2023-04-25T10:06:09;67725.28;;;12.75;100.00
5988;BME280;3021;51.000;6.980;2023-04-25T10:08:37;67731.19;;;12.83;100.00
5988;BME280;3021;51.000;6.980;2023-04-25T10:11:05;67731.91;;;12.86;100.00
5988;BME280;3021;51.000;6.980;2023-04-25T10:13:32;67710.50;;;12.67;100.00
5988;BME280;3021;51.000;6.980;2023-04-25T10:15:59;67750.44;;;13.02;100.00
5988;BME280;3021;51.000;6.980;2023-04-25T10:18:26;67814.75;;;13.59;100.00
5988;BME280;3021;51.000;6.980;2023-04-25T10:20:54;67911.09;;;14.47;100.00
5988;BME280;3021;51.000;6.980;2023-04-25T10:23:22;67993.75;;;15.16;100.00
5988;BME280;3021;51.000;6.980;2023-04-25T10:25:49;68162.25;;;16.68;100.00
5988;BME280;3021;51.000;6.980;2023-04-25T10:28:15;68527.00;;;19.93;100.00
5988;BME280;3021;51.000;6.980;2023-04-25T10:31:07;69237.22;;;26.17;97.67
5988;BME280;3021;51.000;6.980;2023-04-25T10:33:37;68964.47;;;23.82;84.64
5988;BME280;3021;51.000;6.980;2023-04-25T10:36:10;68582.09;;;20.37;89.54
5988;BME280;3021;51.000;6.980;2023-04-25T10:38:37;68252.41;;;17.50;97.22
5988;BME280;3021;51.000;6.980;2023-04-25T10:41:07;68074.00;;;15.89;100.00
5988;BME280;3021;51.000;6.980;2023-04-25T10:43:45;67920.22;;;14.53;100.00
5988;BME280;3021;51.000;6.980;2023-04-25T10:46:30;67796.22;;;13.43;100.00
5988;BME280;3021;51.000;6.980;2023-04-25T10:49:01;67739.75;;;12.88;100.00
5988;BME280;3021;51.000;6.980;2023-04-25T10:51:29;67663.63;;;12.25;100.00
5988;BME280;3021;51.000;6.980;2023-04-25T10:59:06;67658.84;;;12.18;100.00
5988;BME280;3021;51.000;6.980;2023-04-25T11:01:36;67687.22;;;12.43;100.00
5988;BME280;3021;51.000;6.980;2023-04-25T11:04:02;67775.22;;;13.22;100.00
5988;BME280;3021;51.000;6.980;2023-04-25T11:09:28;67895.63;;;14.26;100.00
5988;BME280;3021;51.000;6.980;2023-04-25T11:11:58;67957.34;;;14.86;100.00
5988;BME280;3021;51.000;6.980;2023-04-25T11:14:25;67975.34;;;15.02;100.00
5988;BME280;3021;51.000;6.980;2023-04-25T11:16:54;67986.34;;;15.12;100.00
5988;BME280;3021;51.000;6.980;2023-04-25T11:19:24;67989.25;;;15.14;100.00
5988;BME280;3021;51.000;6.980;2023-04-25T11:21:49;68021.16;;;15.43;100.00
5988;BME280;3021;51.000;6.980;2023-04-25T11:24:18;68003.19;;;15.27;100.00
5988;BME280;3021;51.000;6.980;2023-04-25T11:26:47;68053.78;;;15.74;100.00
5988;BME280;3021;51.000;6.980;2023-04-25T11:29:15;68031.63;;;15.52;100.00
5988;BME280;3021;51.000;6.980;2023-04-25T11:31:44;68032.19;;;15.52;100.00
5988;BME280;3021;51.000;6.980;2023-04-25T11:34:10;68025.66;;;15.44;100.00
5988;BME280;3021;51.000;6.980;2023-04-25T11:36:37;68013.75;;;15.38;100.00
5988;BME280;3021;51.000;6.980;2023-04-25T11:39:03;67998.53;;;15.23;100.00
5988;BME280;3021;51.000;6.980;2023-04-25T11:41:30;68058.88;;;15.76;100.00
5988;BME280;3021;51.000;6.980;2023-04-25T11:43:55;68069.91;;;15.86;100.00
5988;BME280;3021;51.000;6.980;2023-04-25T11:46:21;68076.31;;;15.92;100.00
5988;BME280;3021;51.000;6.980;2023-04-25T11:48:46;68089.66;;;16.03;100.00
5988;BME280;3021;51.000;6.980;2023-04-25T11:51:12;68059.47;;;15.77;100.00
5988;BME280;3021;51.000;6.980;2023-04-25T11:53:41;68115.78;;;16.27;100.00
5988;BME280;3021;51.000;6.980;2023-04-25T11:56:10;68082.81;;;16.00;100.00
5988;BME280;3021;51.000;6.980;2023-04-25T12:01:28;68000.88;;;15.25;100.00
5988;BME280;3021;51.000;6.980;2023-04-25T12:03:55;67954.00;;;14.85;100.00
5988;BME280;3021;51.000;6.980;2023-04-25T12:06:20;67930.13;;;14.62;100.00
5988;BME280;3021;51.000;6.980;2023-04-25T12:09:03;67861.25;;;14.03;100.00
5988;BME280;3021;51.000;6.980;2023-04-25T12:11:30;67865.59;;;14.02;100.00
5988;BME280;3021;51.000;6.980;2023-04-25T12:14:01;67832.16;;;13.75;100.00
5988;BME280;3021;51.000;6.980;2023-04-25T12:16:27;67797.22;;;13.41;100.00
5988;BME280;3021;51.000;6.980;2023-04-25T12:18:52;67843.13;;;13.85;100.00
5988;BME280;3021;51.000;6.980;2023-04-25T12:21:20;67933.13;;;14.67;100.00
5988;BME280;3021;51.000;6.980;2023-04-25T12:23:45;67983.47;;;15.09;100.00
5988;BME280;3021;51.000;6.980;2023-04-25T12:26:11;67984.59;;;15.10;100.00
5988;BME280;3021;51.000;6.980;2023-04-25T12:28:36;68003.75;;;15.27;100.00
5988;BME280;3021;51.000;6.980;2023-04-25T12:31:06;67971.84;;;14.99;100.00
5988;BME280;3021;51.000;6.980;2023-04-25T12:33:33;67957.34;;;14.86;100.00
5988;BME280;3021;51.000;6.980;2023-04-25T12:36:00;67908.63;;;14.43;100.00
5988;BME280;3021;51.000;6.980;2023-04-25T12:38:30;67825.78;;;13.69;100.00
5988;BME280;3021;51.000;6.980;2023-04-25T12:40:59;67782.72;;;13.28;100.00
5988;BME280;3021;51.000;6.980;2023-04-25T12:43:24;67760.88;;;13.11;100.00
5988;BME280;3021;51.000;6.980;2023-04-25T12:45:52;67756.69;;;13.05;100.00
5988;BME280;3021;51.000;6.980;2023-04-25T12:48:18;67760.75;;;13.09;100.00
5988;BME280;3021;51.000;6.980;2023-04-25T12:50:44;67761.47;;;13.12;100.00
5988;BME280;3021;51.000;6.980;2023-04-25T12:53:10;67775.78;;;13.22;100.00
5988;BME280;3021;51.000;6.980;2023-04-25T12:55:36;67766.53;;;13.14;100.00
5988;BME280;3021;51.000;6.980;2023-04-25T12:58:02;67738.13;;;12.89;100.00
5988;BME280;3021;51.000;6.980;2023-04-25T13:00:28;67748.56;;;12.98;100.00
5988;BME280;3021;51.000;6.980;2023-04-25T13:02:54;67763.63;;;13.11;100.00
5988;BME280;3021;51.000;6.980;2023-04-25T13:05:19;67763.75;;;13.14;100.00
5988;BME280;3021;51.000;6.980;2023-04-25T13:07:45;67763.75;;;13.14;100.00
5988;BME280;3021;51.000;6.980;2023-04-25T13:10:10;67849.50;;;13.90;100.00
5988;BME280;3021;51.000;6.980;2023-04-25T13:12:36;67977.94;;;15.09;100.00
5988;BME280;3021;51.000;6.980;2023-04-25T13:15:01;68047.25;;;15.66;100.00
5988;BME280;3021;51.000;6.980;2023-04-25T13:17:27;68068.19;;;15.84;100.00
5988;BME280;3021;51.000;6.980;2023-04-25T13:19:52;68058.16;;;15.73;100.00
5988;BME280;3021;51.000;6.980;2023-04-25T13:22:17;68001.44;;;15.25;100.00